createdAt,value
2022-08-21T00:02:00.719Z,96560.66
2022-08-21T00:04:29.468Z,96559.84
2022-08-21T00:06:58.974Z,96553.84
2022-08-21T00:09:27.262Z,96557.28
2022-08-21T00:11:55.406Z,96557.16
2022-08-21T00:14:28.366Z,96550.28
2022-08-21T00:17:00.346Z,96546.78
2022-08-21T00:19:29.063Z,96549.97
2022-08-21T00:21:57.558Z,96562.84
2022-08-21T00:24:28.281Z,96563.41
2022-08-21T00:26:56.416Z,96549.13
2022-08-21T00:29:24.528Z,96555.97
2022-08-21T00:31:52.546Z,96556.47
2022-08-21T00:34:20.627Z,96555.91
2022-08-21T00:36:51.020Z,96556.19
2022-08-21T00:39:19.248Z,96556.88
2022-08-21T00:41:47.483Z,96555.91
2022-08-21T00:44:17.083Z,96549.03
2022-08-21T00:46:45.597Z,96563.31
2022-08-21T00:49:17.126Z,96569.16
2022-08-21T00:51:52.480Z,96569.16
2022-08-21T00:54:22.185Z,96560.53
2022-08-21T00:57:05.059Z,96561.06
2022-08-21T00:59:36.439Z,96559.19
2022-08-21T01:02:05.849Z,96562.84
2022-08-21T01:04:36.573Z,96556.69
2022-08-21T01:07:04.791Z,96561.28
2022-08-21T01:09:33.075Z,96559.59
2022-08-21T01:12:01.666Z,96557.56
2022-08-21T01:14:32.580Z,96553.38
2022-08-21T01:17:01.731Z,96550.38
2022-08-21T01:19:30.017Z,96544.69
2022-08-21T01:21:58.219Z,96537.84
2022-08-21T01:24:26.231Z,96543.47
2022-08-21T01:26:56.687Z,96541.38
2022-08-21T01:29:36.332Z,96539.91
2022-08-21T01:32:11.371Z,96539.84
2022-08-21T01:34:41.894Z,96536.09
2022-08-21T01:37:13.330Z,96533.63
2022-08-21T01:39:43.149Z,96538.22
2022-08-21T01:42:12.240Z,96532.06
2022-08-21T01:44:40.303Z,96532.13
2022-08-21T01:47:12.710Z,96530.03
2022-08-21T01:49:42.448Z,96534.06
2022-08-21T01:52:11.040Z,96538.19
2022-08-21T01:54:39.823Z,96532.91
2022-08-21T01:57:07.873Z,96535.44
2022-08-21T01:59:36.100Z,96534.78
2022-08-21T02:02:07.020Z,96529.19
2022-08-21T02:04:37.982Z,96540.31
2022-08-21T02:07:08.367Z,96532.97
2022-08-21T02:09:42.233Z,96532.78
2022-08-21T02:12:11.332Z,96534.13
2022-08-21T02:14:39.406Z,96536.91
2022-08-21T02:17:09.489Z,96535.66
2022-08-21T02:19:40.559Z,96539.16
2022-08-21T02:22:14.182Z,96547.78
2022-08-21T02:24:53.964Z,96546.88
2022-08-21T02:27:26.823Z,96534.38
2022-08-21T02:29:57.441Z,96544.81
2022-08-21T02:32:25.777Z,96556.69
2022-08-21T02:34:53.883Z,96560.56
2022-08-21T02:37:23.538Z,96555.34
2022-08-21T02:39:56.720Z,96559.13
2022-08-21T02:42:24.877Z,96565.59
2022-08-21T02:44:52.895Z,96574.03
2022-08-21T02:47:20.947Z,96579.97
2022-08-21T02:49:49.060Z,96585.91
2022-08-21T02:52:17.089Z,96587.50
2022-08-21T02:54:48.009Z,96586.28
2022-08-21T02:57:16.098Z,96588.97
2022-08-21T02:59:47.057Z,96588.72
2022-08-21T03:02:15.342Z,96591.09
2022-08-21T03:04:46.537Z,96599.41
2022-08-21T03:07:14.960Z,96602.44
2022-08-21T03:09:55.439Z,96597.00
2022-08-21T03:12:28.515Z,96603.19
2022-08-21T03:14:57.546Z,96595.59
2022-08-21T03:17:29.395Z,96598.91
2022-08-21T03:19:58.792Z,96602.78
2022-08-21T03:22:30.690Z,96600.91
2022-08-21T03:24:59.686Z,96600.19
2022-08-21T03:27:28.605Z,96599.22
2022-08-21T03:29:57.914Z,96606.81
2022-08-21T03:32:25.946Z,96608.97
2022-08-21T03:34:58.924Z,96613.97
2022-08-21T03:37:29.715Z,96614.44
2022-08-21T03:40:00.424Z,96615.44
2022-08-21T03:42:31.162Z,96619.53
2022-08-21T03:45:01.567Z,96617.44
2022-08-21T03:47:29.627Z,96615.44
2022-08-21T03:49:58.153Z,96627.66
2022-08-21T03:52:29.086Z,96624.88
2022-08-21T03:55:00.003Z,96636.84
2022-08-21T03:57:28.045Z,96640.44
2022-08-21T03:59:56.077Z,96644.56
2022-08-21T04:02:27.169Z,96642.56
2022-08-21T04:04:57.645Z,96644.53
2022-08-21T04:07:25.693Z,96651.28
2022-08-21T04:09:53.807Z,96653.81
2022-08-21T04:12:22.649Z,96654.34
2022-08-21T04:14:53.570Z,96657.63
2022-08-21T04:17:21.910Z,96664.63
2022-08-21T04:19:53.664Z,96667.56
2022-08-21T04:22:24.739Z,96672.41
2022-08-21T04:24:52.787Z,96672.06
2022-08-21T04:27:20.902Z,96680.34
2022-08-21T04:29:48.999Z,96687.50
2022-08-21T04:32:26.857Z,96689.22
2022-08-21T04:35:07.195Z,96693.97
2022-08-21T04:37:35.379Z,96703.63
2022-08-21T04:40:15.579Z,96693.84
2022-08-21T04:42:52.450Z,96694.25
2022-08-21T04:45:26.535Z,96696.44
2022-08-21T04:47:56.858Z,96692.28
2022-08-21T04:50:29.404Z,96688.69
2022-08-21T04:52:57.928Z,96696.94
2022-08-21T04:55:26.937Z,96698.91
2022-08-21T04:57:55.048Z,96695.50
2022-08-21T05:00:24.704Z,96697.38
2022-08-21T05:02:53.581Z,96700.19
2022-08-21T05:05:24.518Z,96708.41
2022-08-21T05:07:53.263Z,96705.13
2022-08-21T05:10:21.425Z,96708.28
2022-08-21T05:12:49.631Z,96705.75
2022-08-21T05:15:17.713Z,96716.00
2022-08-21T05:17:52.428Z,96711.59
2022-08-21T05:20:25.417Z,96710.13
2022-08-21T05:22:58.758Z,96715.94
2022-08-21T05:25:28.265Z,96713.34
2022-08-21T05:28:00.758Z,96717.59
2022-08-21T05:30:29.145Z,96722.63
2022-08-21T05:33:04.596Z,96729.31
2022-08-21T05:35:33.530Z,96726.16
2022-08-21T05:38:02.372Z,96731.19
2022-08-21T05:40:30.929Z,96728.28
2022-08-21T05:42:59.545Z,96730.50
2022-08-21T05:45:43.160Z,96727.13
2022-08-21T05:48:21.988Z,96728.19
2022-08-21T05:50:51.318Z,96742.41
2022-08-21T05:53:21.412Z,96742.63
2022-08-21T05:55:49.961Z,96747.38
2022-08-21T05:58:20.864Z,96748.94
2022-08-21T06:00:50.237Z,96751.75
2022-08-21T06:03:22.030Z,96749.28
2022-08-21T06:05:50.695Z,96746.38
2022-08-21T06:08:19.698Z,96745.41
2022-08-21T06:10:49.584Z,96742.72
2022-08-21T06:13:21.207Z,96754.44
2022-08-21T06:15:49.706Z,96753.00
2022-08-21T06:18:21.134Z,96747.53
2022-08-21T06:20:49.179Z,96756.72
2022-08-21T06:23:17.279Z,96754.00
2022-08-21T06:25:45.406Z,96758.69
2022-08-21T06:28:13.586Z,96764.66
2022-08-21T06:30:43.904Z,96764.94
2022-08-21T06:33:11.990Z,96767.16
2022-08-21T06:35:40.493Z,96762.91
2022-08-21T06:38:10.057Z,96761.41
2022-08-21T06:40:39.011Z,96772.31
2022-08-21T06:43:15.186Z,96781.78
2022-08-21T06:45:43.822Z,96782.25
2022-08-21T06:48:15.627Z,96786.53
2022-08-21T06:50:46.718Z,96780.81
2022-08-21T06:53:16.081Z,96790.94
2022-08-21T06:55:47.338Z,96793.22
2022-08-21T06:58:15.976Z,96794.94
2022-08-21T07:00:49.891Z,96794.22
2022-08-21T07:03:24.424Z,96799.19
2022-08-21T07:05:52.873Z,96795.97
2022-08-21T07:08:21.188Z,96794.00
2022-08-21T07:10:53.088Z,96800.94
2022-08-21T07:13:21.250Z,96800.22
2022-08-21T07:15:49.522Z,96800.94
2022-08-21T07:18:17.825Z,96792.75
2022-08-21T07:20:45.960Z,96789.28
2022-08-21T07:23:36.670Z,96799.72
2022-08-21T07:26:04.806Z,96796.72
2022-08-21T07:28:35.810Z,96804.16
2022-08-21T07:31:05.060Z,96806.16
2022-08-21T07:33:35.710Z,96810.38
2022-08-21T07:36:04.380Z,96811.84
2022-08-21T07:38:32.412Z,96816.59
2022-08-21T07:41:04.406Z,96812.63
2022-08-21T07:43:32.597Z,96814.56
2022-08-21T07:46:03.710Z,96816.06
2022-08-21T07:48:31.769Z,96812.84
2022-08-21T07:51:00.500Z,96819.31
2022-08-21T07:53:28.579Z,96828.47
2022-08-21T07:56:04.006Z,96822.25
2022-08-21T07:58:33.705Z,96820.00
2022-08-21T08:01:02.018Z,96820.28
2022-08-21T08:03:30.118Z,96821.53
2022-08-21T08:06:02.054Z,96824.78
2022-08-21T08:08:30.214Z,96830.22
2022-08-21T08:10:59.536Z,96827.50
2022-08-21T08:13:30.563Z,96832.97
2022-08-21T08:15:58.651Z,96836.91
2022-08-21T08:18:31.647Z,96838.13
2022-08-21T08:20:59.676Z,96835.91
2022-08-21T08:23:30.259Z,96834.94
2022-08-21T08:25:58.896Z,96825.00
2022-08-21T08:28:27.086Z,96833.19
2022-08-21T08:30:55.185Z,96833.19
2022-08-21T08:33:25.346Z,96836.16
2022-08-21T08:35:53.670Z,96840.38
2022-08-21T08:38:24.382Z,96836.16
2022-08-21T08:41:19.292Z,96841.63
2022-08-21T08:44:00.995Z,96842.63
2022-08-21T08:46:40.918Z,96842.63
2022-08-21T08:49:20.728Z,96846.09
2022-08-21T08:52:05.655Z,96854.50
2022-08-21T08:54:42.037Z,96855.75
2022-08-21T08:57:13.142Z,96851.53
2022-08-21T08:59:44.583Z,96860.22
2022-08-21T09:02:18.455Z,96852.03
2022-08-21T09:04:49.662Z,96854.03
2022-08-21T09:07:38.710Z,96856.72
2022-08-21T09:10:13.776Z,96859.44
2022-08-21T09:12:41.795Z,96862.38
2022-08-21T09:15:29.914Z,96870.56
2022-08-21T09:18:07.880Z,96864.13
2022-08-21T09:21:00.822Z,96872.78
2022-08-21T09:23:49.855Z,96875.25
2022-08-21T09:26:19.342Z,96882.72
2022-08-21T09:28:48.118Z,96887.91
2022-08-21T09:31:45.387Z,96891.91
2022-08-21T09:34:13.795Z,96902.34
2022-08-21T09:36:49.290Z,96900.84
2022-08-21T09:39:32.069Z,96907.69
2022-08-21T09:42:12.285Z,96911.91
2022-08-21T09:44:42.966Z,96913.66
2022-08-21T09:47:12.376Z,96907.03
2022-08-21T09:49:43.673Z,96918.91
2022-08-21T09:52:25.121Z,96925.75
2022-08-21T09:54:55.874Z,96924.22
2022-08-21T09:57:33.510Z,96931.00
2022-08-21T10:00:10.636Z,96930.88
2022-08-21T10:02:38.824Z,96933.09
2022-08-21T10:05:21.559Z,96940.22
2022-08-21T10:07:52.921Z,96949.63
2022-08-21T10:10:27.959Z,96936.25
2022-08-21T10:13:07.623Z,96938.56
2022-08-21T10:15:58.951Z,96937.91
2022-08-21T10:18:41.882Z,96939.75
2022-08-21T10:21:27.356Z,96952.63
2022-08-21T10:24:31.548Z,96970.63
2022-08-21T10:27:13.497Z,96966.09
2022-08-21T10:29:48.137Z,96967.28
2022-08-21T10:32:35.402Z,96972.91
2022-08-21T10:35:11.464Z,96971.13
2022-08-21T10:38:33.606Z,96976.66
2022-08-21T10:41:14.045Z,96973.63
2022-08-21T10:44:03.990Z,96971.09
2022-08-21T10:46:43.898Z,96979.63
2022-08-21T10:49:25.082Z,96974.97
2022-08-21T10:52:44.024Z,96976.75
2022-08-21T10:55:19.050Z,96969.78
2022-08-21T10:57:49.730Z,96974.44
2022-08-21T11:00:26.662Z,96968.91
2022-08-21T11:02:57.824Z,96976.66
2022-08-21T11:05:40.935Z,96969.97
2022-08-21T11:08:20.880Z,96982.94
2022-08-21T11:11:04.464Z,96981.63
2022-08-21T11:13:47.776Z,96977.56
2022-08-21T11:16:25.899Z,96975.38
2022-08-21T11:19:32.042Z,96977.34
2022-08-21T11:22:36.973Z,96979.75
2022-08-21T11:25:19.622Z,96974.41
2022-08-21T11:27:51.616Z,96983.41
2022-08-21T11:30:19.769Z,96982.03
2022-08-21T11:32:57.149Z,96988.16
2022-08-21T11:35:31.093Z,96989.66
2022-08-21T11:37:59.134Z,96990.78
2022-08-21T11:40:33.250Z,96993.19
2022-08-21T11:43:33.998Z,96993.72
2022-08-21T11:46:13.862Z,96988.47
2022-08-21T11:49:05.938Z,96992.41
2022-08-21T11:52:16.950Z,96997.31
2022-08-21T11:54:50.829Z,97002.78
2022-08-21T11:57:24.328Z,97000.09
2022-08-21T12:00:09.208Z,97007.03
2022-08-21T12:02:41.793Z,97011.72
2022-08-21T12:05:12.406Z,97004.53
2022-08-21T12:07:45.397Z,97011.94
2022-08-21T12:10:20.362Z,97005.63
2022-08-21T12:12:50.813Z,97002.63
2022-08-21T12:15:24.872Z,97008.41
2022-08-21T12:17:54.003Z,97008.41
2022-08-21T12:21:02.976Z,97007.13
2022-08-21T12:23:59.570Z,97007.28
2022-08-21T12:26:35.735Z,97008.72
2022-08-21T12:29:14.456Z,97009.47
2022-08-21T12:32:01.864Z,97011.97
2022-08-21T12:34:42.849Z,97021.13
2022-08-21T12:37:43.145Z,97021.22
2022-08-21T12:40:22.955Z,97023.94
2022-08-21T12:42:58.887Z,97021.34
2022-08-21T12:45:38.622Z,97021.88
2022-08-21T12:48:33.907Z,97020.13
2022-08-21T12:51:15.365Z,97032.78
2022-08-21T12:53:50.778Z,97020.28
2022-08-21T12:56:23.530Z,97025.19
2022-08-21T12:58:54.302Z,97023.84
2022-08-21T13:01:30.215Z,97034.28
2022-08-21T13:04:05.672Z,97035.50
2022-08-21T13:06:39.291Z,97030.69
2022-08-21T13:09:12.310Z,97032.88
2022-08-21T13:11:42.503Z,97039.13
2022-08-21T13:14:23.145Z,97041.84
2022-08-21T13:16:57.164Z,97048.22
2022-08-21T13:19:25.863Z,97037.06
2022-08-21T13:21:54.374Z,97043.28
2022-08-21T13:24:43.854Z,97040.50
2022-08-21T13:27:22.637Z,97046.69
2022-08-21T13:30:01.837Z,97045.09
2022-08-21T13:32:33.585Z,97060.13
2022-08-21T13:35:17.473Z,97049.66
2022-08-21T13:37:47.036Z,97054.59
2022-08-21T13:40:21.788Z,97053.00
2022-08-21T13:42:52.813Z,97052.47
2022-08-21T13:45:27.411Z,97056.38
2022-08-21T13:47:59.431Z,97055.44
2022-08-21T13:50:31.269Z,97054.00
2022-08-21T13:53:03.138Z,97066.09
2022-08-21T13:55:45.714Z,97054.09
2022-08-21T13:58:13.973Z,97058.09
2022-08-21T14:00:55.814Z,97060.81
2022-08-21T14:03:47.455Z,97072.25
2022-08-21T14:06:29.134Z,97078.75
2022-08-21T14:09:02.809Z,97076.75
2022-08-21T14:11:35.302Z,97081.22
2022-08-21T14:14:06.509Z,97083.50
2022-08-21T14:16:47.870Z,97092.88
2022-08-21T14:19:25.728Z,97089.94
2022-08-21T14:21:54.188Z,97098.25
2022-08-21T14:24:25.297Z,97107.25
2022-08-21T14:26:57.765Z,97100.38
2022-08-21T14:29:32.665Z,97112.16
2022-08-21T14:32:21.571Z,97116.91
2022-08-21T14:34:54.887Z,97123.34
2022-08-21T14:37:26.248Z,97124.13
2022-08-21T14:39:54.378Z,97122.69
2022-08-21T14:42:22.683Z,97119.75
2022-08-21T14:44:50.706Z,97119.09
2022-08-21T14:47:18.759Z,97125.09
2022-08-21T14:49:46.820Z,97127.44
2022-08-21T14:52:14.905Z,97131.84
2022-08-21T14:54:42.954Z,97124.19
2022-08-21T14:57:13.084Z,97132.06
2022-08-21T14:59:41.361Z,97131.19
2022-08-21T15:02:10.244Z,97137.72
2022-08-21T15:04:38.285Z,97129.25
2022-08-21T15:07:06.414Z,97142.63
2022-08-21T15:09:34.456Z,97135.66
2022-08-21T15:12:03.421Z,97132.78
2022-08-21T15:14:34.382Z,97133.31
2022-08-21T15:17:05.274Z,97134.50
2022-08-21T15:19:33.459Z,97135.22
2022-08-21T15:22:01.690Z,97141.44
2022-08-21T15:24:29.857Z,97126.66
2022-08-21T15:27:01.572Z,97134.84
2022-08-21T15:29:33.464Z,97137.38
2022-08-21T15:32:25.924Z,97135.22
2022-08-21T15:34:54.650Z,97136.38
2022-08-21T15:37:26.747Z,97133.53
2022-08-21T15:39:55.082Z,97133.00
2022-08-21T15:42:23.750Z,97135.84
2022-08-21T15:44:51.929Z,97127.03
2022-08-21T15:47:23.588Z,97130.81
2022-08-21T15:49:51.682Z,97131.28
2022-08-21T15:52:23.389Z,97130.63
2022-08-21T15:54:54.480Z,97136.38
2022-08-21T15:57:25.027Z,97122.25
2022-08-21T16:00:05.327Z,97126.03
2022-08-21T16:02:35.701Z,97128.59
2022-08-21T16:05:03.886Z,97126.38
2022-08-21T16:07:31.960Z,97127.56
2022-08-21T16:09:59.981Z,97135.50
2022-08-21T16:12:37.244Z,97133.69
2022-08-21T16:15:09.711Z,97133.63
2022-08-21T16:17:39.258Z,97123.72
2022-08-21T16:20:14.312Z,97132.66
2022-08-21T16:22:44.816Z,97133.03
2022-08-21T16:25:15.006Z,97130.84
2022-08-21T16:27:48.274Z,97133.63
2022-08-21T16:30:19.671Z,97132.53
2022-08-21T16:32:50.554Z,97140.31
2022-08-21T16:35:22.497Z,97138.06
2022-08-21T16:37:53.216Z,97147.56
2022-08-21T16:40:25.034Z,97146.28
2022-08-21T16:42:55.603Z,97156.00
2022-08-21T16:45:23.886Z,97145.81
2022-08-21T16:47:54.281Z,97143.56
2022-08-21T16:50:27.099Z,97143.53
2022-08-21T16:52:55.267Z,97146.47
2022-08-21T16:55:23.356Z,97140.97
2022-08-21T16:57:51.419Z,97131.19
2022-08-21T17:00:22.458Z,97129.53
2022-08-21T17:02:56.172Z,97131.56
2022-08-21T17:05:24.460Z,97125.81
2022-08-21T17:07:52.480Z,97129.13
2022-08-21T17:10:20.600Z,97129.56
2022-08-21T17:12:56.367Z,97136.38
2022-08-21T17:15:27.715Z,97136.03
2022-08-21T17:17:55.886Z,97139.03
2022-08-21T17:20:24.568Z,97139.53
2022-08-21T17:22:58.734Z,97142.44
2022-08-21T17:25:27.874Z,97140.06
2022-08-21T17:27:58.717Z,97135.22
2022-08-21T17:30:26.888Z,97145.13
2022-08-21T17:32:56.447Z,97140.22
2022-08-21T17:35:24.556Z,97143.50
2022-08-21T17:37:52.646Z,97143.00
2022-08-21T17:40:23.740Z,97149.50
2022-08-21T17:42:52.014Z,97154.28
2022-08-21T17:45:21.209Z,97147.81
2022-08-21T17:47:49.306Z,97140.56
2022-08-21T17:50:22.684Z,97142.28
2022-08-21T17:52:51.374Z,97145.50
2022-08-21T17:55:22.096Z,97140.38
2022-08-21T17:57:53.614Z,97145.41
2022-08-21T18:00:23.789Z,97139.22
2022-08-21T18:03:01.573Z,97127.41
2022-08-21T18:05:32.541Z,97137.25
2022-08-21T18:08:00.588Z,97134.13
2022-08-21T18:10:31.085Z,97132.75
2022-08-21T18:13:00.101Z,97133.75
2022-08-21T18:15:28.358Z,97139.91
2022-08-21T18:17:59.290Z,97126.75
2022-08-21T18:20:27.839Z,97123.69
2022-08-21T18:22:58.468Z,97131.19
2022-08-21T18:25:26.701Z,97119.03
2022-08-21T18:27:57.805Z,97117.28
2022-08-21T18:30:28.168Z,97130.47
2022-08-21T18:32:56.672Z,97130.97
2022-08-21T18:35:24.965Z,97131.28
2022-08-21T18:37:55.623Z,97135.94
2022-08-21T18:40:23.758Z,97132.63
2022-08-21T18:42:55.841Z,97129.28
2022-08-21T18:45:24.529Z,97132.38
2022-08-21T18:47:55.345Z,97130.75
2022-08-21T18:50:27.219Z,97130.34
2022-08-21T18:52:55.417Z,97129.59
2022-08-21T18:55:24.751Z,97137.34
2022-08-21T18:57:54.843Z,97142.38
2022-08-21T19:00:32.731Z,97130.66
2022-08-21T19:05:53.356Z,97129.00
2022-08-21T19:08:23.120Z,97120.91
2022-08-21T19:10:52.637Z,97114.41
2022-08-21T19:13:24.388Z,97110.69
2022-08-21T19:15:53.866Z,97102.06
2022-08-21T19:18:28.807Z,97094.66
2022-08-21T19:20:57.683Z,97085.22
2022-08-21T19:23:29.191Z,97085.34
2022-08-21T19:26:00.735Z,97080.72
2022-08-21T19:28:33.668Z,97082.88
2022-08-21T19:31:06.397Z,97077.13
2022-08-21T19:33:41.101Z,97077.31
2022-08-21T19:36:13.279Z,97085.78
2022-08-21T19:38:42.181Z,97076.97
2022-08-21T19:41:17.065Z,97075.13
2022-08-21T19:43:56.099Z,97081.41
2022-08-21T19:46:28.150Z,97072.06
2022-08-21T19:49:01.994Z,97074.72
2022-08-21T19:51:32.360Z,97071.94
2022-08-21T19:54:04.382Z,97067.97
2022-08-21T19:56:34.210Z,97065.81
2022-08-21T19:59:05.985Z,97068.66
2022-08-21T20:01:40.050Z,97068.34
2022-08-21T20:04:10.737Z,97070.59
2022-08-21T20:06:47.046Z,97058.38
2022-08-21T20:09:15.800Z,97066.97
2022-08-21T20:11:53.101Z,97073.00
2022-08-21T20:14:27.150Z,97066.25
2022-08-21T20:17:10.528Z,97062.78
2022-08-21T20:19:39.588Z,97063.00
2022-08-21T20:22:10.127Z,97061.81
2022-08-21T20:24:41.356Z,97063.72
2022-08-21T20:27:15.821Z,97060.91
2022-08-21T20:29:44.091Z,97067.28
2022-08-21T20:32:12.518Z,97065.31
2022-08-21T20:34:45.250Z,97063.19
2022-08-21T20:37:13.774Z,97065.28
2022-08-21T20:40:01.898Z,97062.66
2022-08-21T20:42:30.006Z,97065.84
2022-08-21T20:45:02.647Z,97068.00
2022-08-21T20:47:31.326Z,97063.34
2022-08-21T20:50:10.328Z,97056.13
2022-08-21T20:52:40.235Z,97057.00
2022-08-21T20:55:11.768Z,97062.75
2022-08-21T20:57:51.915Z,97059.31
2022-08-21T21:00:25.340Z,97058.59
2022-08-21T21:03:08.749Z,97047.47
2022-08-21T21:05:58.900Z,97046.63
2022-08-21T21:08:37.011Z,97051.06
2022-08-21T21:11:27.028Z,97055.91
2022-08-21T21:14:04.356Z,97044.16
2022-08-21T21:16:40.870Z,97036.00
2022-08-21T21:19:24.846Z,97038.91
2022-08-21T21:21:52.501Z,97038.09
2022-08-21T21:27:21.283Z,97020.66
2022-08-21T21:30:01.825Z,97026.47
2022-08-21T21:32:32.363Z,97016.91
2022-08-21T21:35:05.292Z,97022.25
2022-08-21T21:37:55.388Z,97010.81
2022-08-21T21:40:38.307Z,97006.72
2022-08-21T21:43:35.635Z,97008.22
2022-08-21T21:46:21.674Z,96998.63
2022-08-21T21:49:36.060Z,96984.81
2022-08-21T21:55:10.159Z,96978.47
2022-08-21T21:57:38.166Z,96983.53
2022-08-21T22:00:06.200Z,96971.56
2022-08-21T22:03:05.145Z,96963.75
2022-08-21T22:05:56.887Z,96964.84
2022-08-21T22:08:50.887Z,96978.78
2022-08-21T22:11:36.377Z,96971.13
2022-08-21T22:14:10.161Z,96968.22
2022-08-21T22:16:41.373Z,96974.16
2022-08-21T22:19:22.586Z,96972.94
2022-08-21T22:22:14.573Z,96969.88
2022-08-21T22:24:47.094Z,96965.16
2022-08-21T22:27:30.914Z,96967.69
2022-08-21T22:29:59.524Z,96964.09
2022-08-21T22:32:31.629Z,96966.94
2022-08-21T22:35:21.901Z,96968.75
2022-08-21T22:37:56.015Z,96966.91
2022-08-21T22:40:32.616Z,96963.22
2022-08-21T22:43:09.363Z,96962.41
2022-08-21T22:46:00.689Z,96954.34
2022-08-21T22:48:38.726Z,96962.47
2022-08-21T22:51:30.024Z,96954.19
2022-08-21T22:54:00.845Z,96953.84
2022-08-21T22:56:39.371Z,96960.47
2022-08-21T22:59:22.622Z,96952.16
2022-08-21T23:02:01.839Z,96950.47
2022-08-21T23:04:30.143Z,96949.28
2022-08-21T23:07:05.965Z,96945.06
2022-08-21T23:09:37.199Z,96944.47
2022-08-21T23:12:21.060Z,96946.16
2022-08-21T23:14:54.691Z,96945.00
2022-08-21T23:17:52.817Z,96947.38
2022-08-21T23:20:38.555Z,96935.72
2022-08-21T23:23:17.704Z,96937.06
2022-08-21T23:26:08.709Z,96932.22
2022-08-21T23:28:48.695Z,96923.38
2022-08-21T23:31:42.797Z,96922.47
2022-08-21T23:34:28.655Z,96920.69
2022-08-21T23:37:17.299Z,96924.31
2022-08-21T23:43:18.182Z,96925.50
2022-08-21T23:45:52.270Z,96926.69
2022-08-21T23:48:48.799Z,96933.63
2022-08-21T23:51:36.195Z,96926.41
2022-08-21T23:54:04.135Z,96922.22
2022-08-21T23:57:31.281Z,96924.56
